sensor_id;sensor_type;location;lat;lon;timestamp;P1;durP1;ratioP1;P2;durP2;ratioP2
54307;SDS011;40208;39.778;2.710;2024-03-23T00:53:20;20.80;;;12.75;;
54307;SDS011;40208;39.778;2.710;2024-03-23T00:56:05;24.75;;;12.00;;
54307;SDS011;40208;39.778;2.710;2024-03-23T00:58:50;27.08;;;12.35;;
54307;SDS011;40208;39.778;2.710;2024-03-23T01:01:34;24.75;;;12.82;;
54307;SDS011;40208;39.778;2.710;2024-03-23T01:04:19;22.27;;;11.77;;
54307;SDS011;40208;39.778;2.710;2024-03-23T01:07:04;29.90;;;12.90;;
54307;SDS011;40208;39.778;2.710;2024-03-23T01:09:49;25.15;;;12.77;;
54307;SDS011;40208;39.778;2.710;2024-03-23T01:12:33;24.33;;;11.23;;
54307;SDS011;40208;39.778;2.710;2024-03-23T01:15:18;32.22;;;12.10;;
54307;SDS011;40208;39.778;2.710;2024-03-23T01:18:03;21.88;;;10.88;;
54307;SDS011;40208;39.778;2.710;2024-03-23T01:20:48;26.70;;;10.95;;
54307;SDS011;40208;39.778;2.710;2024-03-23T01:23:33;25.35;;;10.82;;
54307;SDS011;40208;39.778;2.710;2024-03-23T01:26:18;22.40;;;11.40;;
54307;SDS011;40208;39.778;2.710;2024-03-23T01:29:02;19.70;;;10.77;;
54307;SDS011;40208;39.778;2.710;2024-03-23T01:31:47;22.38;;;10.40;;
54307;SDS011;40208;39.778;2.710;2024-03-23T01:34:32;20.23;;;9.07;;
54307;SDS011;40208;39.778;2.710;2024-03-23T01:37:17;23.02;;;9.90;;
54307;SDS011;40208;39.778;2.710;2024-03-23T01:40:01;21.38;;;10.20;;
54307;SDS011;40208;39.778;2.710;2024-03-23T01:42:58;26.05;;;10.00;;
54307;SDS011;40208;39.778;2.710;2024-03-23T01:45:48;16.10;;;9.02;;
54307;SDS011;40208;39.778;2.710;2024-03-23T01:48:33;16.00;;;8.40;;
54307;SDS011;40208;39.778;2.710;2024-03-23T01:51:18;23.23;;;8.45;;
54307;SDS011;40208;39.778;2.710;2024-03-23T01:54:03;34.63;;;8.85;;
54307;SDS011;40208;39.778;2.710;2024-03-23T01:56:50;20.40;;;9.18;;
54307;SDS011;40208;39.778;2.710;2024-03-23T01:59:35;23.70;;;9.00;;
54307;SDS011;40208;39.778;2.710;2024-03-23T02:02:20;21.58;;;8.55;;
54307;SDS011;40208;39.778;2.710;2024-03-23T02:05:05;29.23;;;8.73;;
54307;SDS011;40208;39.778;2.710;2024-03-23T02:07:50;23.17;;;9.10;;
54307;SDS011;40208;39.778;2.710;2024-03-23T02:10:35;19.00;;;8.70;;
54307;SDS011;40208;39.778;2.710;2024-03-23T02:13:20;22.67;;;8.77;;
54307;SDS011;40208;39.778;2.710;2024-03-23T02:16:05;21.38;;;9.40;;
54307;SDS011;40208;39.778;2.710;2024-03-23T02:18:50;20.50;;;8.45;;
54307;SDS011;40208;39.778;2.710;2024-03-23T02:21:35;18.25;;;8.65;;
54307;SDS011;40208;39.778;2.710;2024-03-23T02:24:20;18.45;;;9.13;;
54307;SDS011;40208;39.778;2.710;2024-03-23T02:27:04;22.52;;;9.32;;
54307;SDS011;40208;39.778;2.710;2024-03-23T02:29:49;24.13;;;8.68;;
54307;SDS011;40208;39.778;2.710;2024-03-23T02:32:34;19.85;;;8.70;;
54307;SDS011;40208;39.778;2.710;2024-03-23T02:35:19;23.80;;;9.23;;
54307;SDS011;40208;39.778;2.710;2024-03-23T02:38:04;22.85;;;8.57;;
54307;SDS011;40208;39.778;2.710;2024-03-23T02:40:49;20.73;;;8.85;;
54307;SDS011;40208;39.778;2.710;2024-03-23T02:43:34;17.52;;;8.95;;
54307;SDS011;40208;39.778;2.710;2024-03-23T02:46:19;23.05;;;8.50;;
54307;SDS011;40208;39.778;2.710;2024-03-23T02:49:04;24.92;;;8.13;;
54307;SDS011;40208;39.778;2.710;2024-03-23T02:51:49;18.13;;;6.70;;
54307;SDS011;40208;39.778;2.710;2024-03-23T02:54:35;17.52;;;7.28;;
54307;SDS011;40208;39.778;2.710;2024-03-23T02:57:20;17.42;;;7.55;;
54307;SDS011;40208;39.778;2.710;2024-03-23T03:00:05;19.70;;;8.43;;
54307;SDS011;40208;39.778;2.710;2024-03-23T03:02:51;17.00;;;8.77;;
54307;SDS011;40208;39.778;2.710;2024-03-23T03:05:35;20.05;;;7.78;;
54307;SDS011;40208;39.778;2.710;2024-03-23T03:08:20;17.60;;;8.10;;
54307;SDS011;40208;39.778;2.710;2024-03-23T03:11:05;21.92;;;8.23;;
54307;SDS011;40208;39.778;2.710;2024-03-23T03:13:50;18.92;;;7.95;;
54307;SDS011;40208;39.778;2.710;2024-03-23T03:16:35;19.88;;;7.75;;
54307;SDS011;40208;39.778;2.710;2024-03-23T03:19:20;18.58;;;8.18;;
54307;SDS011;40208;39.778;2.710;2024-03-23T03:22:05;20.13;;;8.23;;
54307;SDS011;40208;39.778;2.710;2024-03-23T03:24:50;18.92;;;8.20;;
54307;SDS011;40208;39.778;2.710;2024-03-23T03:27:34;17.83;;;8.30;;
54307;SDS011;40208;39.778;2.710;2024-03-23T03:30:19;20.20;;;8.93;;
54307;SDS011;40208;39.778;2.710;2024-03-23T03:33:04;18.55;;;8.20;;
54307;SDS011;40208;39.778;2.710;2024-03-23T03:35:49;25.45;;;8.68;;
54307;SDS011;40208;39.778;2.710;2024-03-23T03:38:34;17.25;;;9.60;;
54307;SDS011;40208;39.778;2.710;2024-03-23T03:41:19;19.30;;;8.70;;
54307;SDS011;40208;39.778;2.710;2024-03-23T03:44:04;15.93;;;8.13;;
54307;SDS011;40208;39.778;2.710;2024-03-23T03:46:49;18.40;;;8.77;;
54307;SDS011;40208;39.778;2.710;2024-03-23T03:49:34;21.02;;;8.52;;
54307;SDS011;40208;39.778;2.710;2024-03-23T03:52:19;18.80;;;8.63;;
54307;SDS011;40208;39.778;2.710;2024-03-23T03:55:03;26.70;;;8.23;;
54307;SDS011;40208;39.778;2.710;2024-03-23T03:57:57;19.85;;;8.07;;
54307;SDS011;40208;39.778;2.710;2024-03-23T04:00:42;17.33;;;7.25;;
54307;SDS011;40208;39.778;2.710;2024-03-23T04:03:27;15.63;;;7.22;;
54307;SDS011;40208;39.778;2.710;2024-03-23T04:06:12;15.48;;;7.88;;
54307;SDS011;40208;39.778;2.710;2024-03-23T04:09:03;18.95;;;8.18;;
54307;SDS011;40208;39.778;2.710;2024-03-23T04:11:48;20.60;;;8.35;;
54307;SDS011;40208;39.778;2.710;2024-03-23T04:14:32;21.02;;;8.18;;
54307;SDS011;40208;39.778;2.710;2024-03-23T04:17:17;19.50;;;8.00;;
54307;SDS011;40208;39.778;2.710;2024-03-23T04:20:02;16.30;;;7.70;;
54307;SDS011;40208;39.778;2.710;2024-03-23T04:22:52;23.08;;;8.45;;
54307;SDS011;40208;39.778;2.710;2024-03-23T04:25:38;16.65;;;7.60;;
54307;SDS011;40208;39.778;2.710;2024-03-23T04:28:22;17.38;;;7.85;;
54307;SDS011;40208;39.778;2.710;2024-03-23T04:31:07;17.45;;;8.25;;
54307;SDS011;40208;39.778;2.710;2024-03-23T04:33:52;21.77;;;9.07;;
54307;SDS011;40208;39.778;2.710;2024-03-23T04:36:37;18.40;;;8.80;;
54307;SDS011;40208;39.778;2.710;2024-03-23T04:39:22;15.57;;;8.40;;
54307;SDS011;40208;39.778;2.710;2024-03-23T04:42:06;19.27;;;7.75;;
54307;SDS011;40208;39.778;2.710;2024-03-23T04:44:51;14.02;;;6.60;;
54307;SDS011;40208;39.778;2.710;2024-03-23T04:47:37;15.07;;;7.03;;
54307;SDS011;40208;39.778;2.710;2024-03-23T04:50:22;17.48;;;6.78;;
54307;SDS011;40208;39.778;2.710;2024-03-23T04:53:07;20.60;;;6.68;;
54307;SDS011;40208;39.778;2.710;2024-03-23T04:55:52;12.88;;;6.28;;
54307;SDS011;40208;39.778;2.710;2024-03-23T04:58:37;19.10;;;5.43;;
54307;SDS011;40208;39.778;2.710;2024-03-23T05:01:22;18.52;;;6.80;;
54307;SDS011;40208;39.778;2.710;2024-03-23T05:04:08;20.40;;;6.43;;
54307;SDS011;40208;39.778;2.710;2024-03-23T05:06:53;11.02;;;5.90;;
54307;SDS011;40208;39.778;2.710;2024-03-23T05:09:37;17.95;;;5.45;;
54307;SDS011;40208;39.778;2.710;2024-03-23T05:12:22;19.65;;;5.72;;
54307;SDS011;40208;39.778;2.710;2024-03-23T05:15:07;18.45;;;6.05;;
54307;SDS011;40208;39.778;2.710;2024-03-23T05:17:52;15.38;;;5.22;;
54307;SDS011;40208;39.778;2.710;2024-03-23T05:20:38;16.27;;;6.20;;
54307;SDS011;40208;39.778;2.710;2024-03-23T05:23:24;13.98;;;5.35;;
54307;SDS011;40208;39.778;2.710;2024-03-23T05:26:09;15.43;;;5.00;;
54307;SDS011;40208;39.778;2.710;2024-03-23T05:28:54;11.98;;;4.75;;
54307;SDS011;40208;39.778;2.710;2024-03-23T05:31:39;13.23;;;5.50;;
54307;SDS011;40208;39.778;2.710;2024-03-23T05:34:25;11.68;;;5.18;;
54307;SDS011;40208;39.778;2.710;2024-03-23T05:37:10;14.65;;;5.30;;
54307;SDS011;40208;39.778;2.710;2024-03-23T05:39:56;20.38;;;5.80;;
54307;SDS011;40208;39.778;2.710;2024-03-23T05:42:40;17.38;;;6.18;;
54307;SDS011;40208;39.778;2.710;2024-03-23T05:45:26;17.42;;;5.40;;
54307;SDS011;40208;39.778;2.710;2024-03-23T05:48:10;20.58;;;6.55;;
54307;SDS011;40208;39.778;2.710;2024-03-23T05:50:55;14.93;;;6.05;;
54307;SDS011;40208;39.778;2.710;2024-03-23T05:53:41;23.63;;;6.28;;
54307;SDS011;40208;39.778;2.710;2024-03-23T05:56:26;15.65;;;5.13;;
54307;SDS011;40208;39.778;2.710;2024-03-23T05:59:11;11.90;;;4.95;;
54307;SDS011;40208;39.778;2.710;2024-03-23T06:01:56;17.25;;;5.28;;
54307;SDS011;40208;39.778;2.710;2024-03-23T06:04:41;18.17;;;5.95;;
54307;SDS011;40208;39.778;2.710;2024-03-23T06:07:26;15.60;;;5.20;;
54307;SDS011;40208;39.778;2.710;2024-03-23T06:10:11;16.13;;;5.88;;
54307;SDS011;40208;39.778;2.710;2024-03-23T06:12:56;17.65;;;5.40;;
54307;SDS011;40208;39.778;2.710;2024-03-23T06:15:41;15.23;;;5.78;;
54307;SDS011;40208;39.778;2.710;2024-03-23T06:18:26;23.75;;;6.15;;
54307;SDS011;40208;39.778;2.710;2024-03-23T06:21:15;20.92;;;5.85;;
54307;SDS011;40208;39.778;2.710;2024-03-23T06:23:59;22.95;;;6.07;;
54307;SDS011;40208;39.778;2.710;2024-03-23T06:26:44;16.77;;;7.22;;
54307;SDS011;40208;39.778;2.710;2024-03-23T06:29:29;18.20;;;6.40;;
54307;SDS011;40208;39.778;2.710;2024-03-23T06:32:14;17.45;;;6.80;;
54307;SDS011;40208;39.778;2.710;2024-03-23T06:34:59;16.63;;;7.03;;
54307;SDS011;40208;39.778;2.710;2024-03-23T06:37:44;16.20;;;7.03;;
54307;SDS011;40208;39.778;2.710;2024-03-23T06:40:28;19.70;;;6.95;;
54307;SDS011;40208;39.778;2.710;2024-03-23T06:43:13;19.67;;;7.28;;
54307;SDS011;40208;39.778;2.710;2024-03-23T06:45:58;23.92;;;11.00;;
54307;SDS011;40208;39.778;2.710;2024-03-23T06:48:44;36.70;;;14.52;;
54307;SDS011;40208;39.778;2.710;2024-03-23T06:51:29;28.42;;;10.48;;
54307;SDS011;40208;39.778;2.710;2024-03-23T06:54:14;28.52;;;10.82;;
54307;SDS011;40208;39.778;2.710;2024-03-23T06:56:59;24.00;;;10.75;;
54307;SDS011;40208;39.778;2.710;2024-03-23T06:59:44;21.08;;;10.45;;
54307;SDS011;40208;39.778;2.710;2024-03-23T07:02:28;23.75;;;10.75;;
54307;SDS011;40208;39.778;2.710;2024-03-23T07:05:13;21.83;;;9.73;;
54307;SDS011;40208;39.778;2.710;2024-03-23T07:07:58;26.73;;;8.98;;
54307;SDS011;40208;39.778;2.710;2024-03-23T07:10:43;22.40;;;9.73;;
54307;SDS011;40208;39.778;2.710;2024-03-23T07:13:28;27.70;;;10.65;;
54307;SDS011;40208;39.778;2.710;2024-03-23T07:16:13;34.28;;;18.45;;
54307;SDS011;40208;39.778;2.710;2024-03-23T07:18:57;28.25;;;14.27;;
54307;SDS011;40208;39.778;2.710;2024-03-23T07:21:43;42.97;;;22.60;;
54307;SDS011;40208;39.778;2.710;2024-03-23T07:24:28;55.97;;;27.15;;
54307;SDS011;40208;39.778;2.710;2024-03-23T07:27:15;131.35;;;64.25;;
54307;SDS011;40208;39.778;2.710;2024-03-23T07:29:59;167.32;;;85.30;;
54307;SDS011;40208;39.778;2.710;2024-03-23T07:32:45;165.90;;;82.82;;
54307;SDS011;40208;39.778;2.710;2024-03-23T07:35:30;116.30;;;62.90;;
54307;SDS011;40208;39.778;2.710;2024-03-23T07:38:15;84.88;;;43.90;;
54307;SDS011;40208;39.778;2.710;2024-03-23T07:41:10;62.00;;;31.27;;
54307;SDS011;40208;39.778;2.710;2024-03-23T07:43:56;63.90;;;28.15;;
54307;SDS011;40208;39.778;2.710;2024-03-23T07:46:40;74.78;;;38.55;;
54307;SDS011;40208;39.778;2.710;2024-03-23T07:49:25;88.97;;;43.17;;
54307;SDS011;40208;39.778;2.710;2024-03-23T07:52:10;78.43;;;38.75;;
54307;SDS011;40208;39.778;2.710;2024-03-23T07:54:55;70.47;;;34.90;;
54307;SDS011;40208;39.778;2.710;2024-03-23T07:57:40;150.95;;;76.50;;
54307;SDS011;40208;39.778;2.710;2024-03-23T08:00:24;218.98;;;111.80;;
54307;SDS011;40208;39.778;2.710;2024-03-23T08:03:09;198.27;;;106.35;;
54307;SDS011;40208;39.778;2.710;2024-03-23T08:05:54;195.77;;;107.43;;
54307;SDS011;40208;39.778;2.710;2024-03-23T08:08:39;214.63;;;114.00;;
54307;SDS011;40208;39.778;2.710;2024-03-23T08:11:25;132.07;;;66.78;;
54307;SDS011;40208;39.778;2.710;2024-03-23T08:14:14;115.78;;;63.22;;
54307;SDS011;40208;39.778;2.710;2024-03-23T08:16:59;125.85;;;66.57;;
54307;SDS011;40208;39.778;2.710;2024-03-23T08:19:43;151.90;;;72.78;;
54307;SDS011;40208;39.778;2.710;2024-03-23T08:22:28;256.27;;;117.50;;
54307;SDS011;40208;39.778;2.710;2024-03-23T08:25:13;143.75;;;76.80;;
54307;SDS011;40208;39.778;2.710;2024-03-23T08:27:58;113.90;;;59.35;;
54307;SDS011;40208;39.778;2.710;2024-03-23T08:30:43;133.90;;;69.75;;
54307;SDS011;40208;39.778;2.710;2024-03-23T08:33:28;128.40;;;68.10;;
54307;SDS011;40208;39.778;2.710;2024-03-23T08:36:13;132.23;;;68.90;;
54307;SDS011;40208;39.778;2.710;2024-03-23T08:39:00;124.85;;;67.80;;
54307;SDS011;40208;39.778;2.710;2024-03-23T08:41:45;115.47;;;57.65;;
54307;SDS011;40208;39.778;2.710;2024-03-23T08:44:30;100.68;;;52.33;;
54307;SDS011;40208;39.778;2.710;2024-03-23T08:47:15;154.73;;;72.45;;
54307;SDS011;40208;39.778;2.710;2024-03-23T08:50:00;268.55;;;117.72;;
54307;SDS011;40208;39.778;2.710;2024-03-23T08:52:45;183.70;;;87.75;;
54307;SDS011;40208;39.778;2.710;2024-03-23T08:55:30;211.27;;;90.95;;
54307;SDS011;40208;39.778;2.710;2024-03-23T08:58:15;234.52;;;102.70;;
54307;SDS011;40208;39.778;2.710;2024-03-23T09:01:09;158.63;;;70.75;;
54307;SDS011;40208;39.778;2.710;2024-03-23T09:03:55;127.45;;;56.15;;
54307;SDS011;40208;39.778;2.710;2024-03-23T09:06:42;117.93;;;52.53;;
54307;SDS011;40208;39.778;2.710;2024-03-23T09:09:27;102.88;;;48.05;;
54307;SDS011;40208;39.778;2.710;2024-03-23T09:12:12;120.60;;;54.42;;
54307;SDS011;40208;39.778;2.710;2024-03-23T09:14:56;116.18;;;52.13;;
54307;SDS011;40208;39.778;2.710;2024-03-23T09:17:41;99.63;;;45.00;;
54307;SDS011;40208;39.778;2.710;2024-03-23T09:20:26;86.85;;;41.70;;
54307;SDS011;40208;39.778;2.710;2024-03-23T09:23:11;94.80;;;40.53;;
54307;SDS011;40208;39.778;2.710;2024-03-23T09:25:56;85.38;;;35.00;;
54307;SDS011;40208;39.778;2.710;2024-03-23T09:28:40;66.63;;;31.58;;
54307;SDS011;40208;39.778;2.710;2024-03-23T09:31:25;61.47;;;28.23;;
54307;SDS011;40208;39.778;2.710;2024-03-23T09:34:10;38.58;;;18.05;;
54307;SDS011;40208;39.778;2.710;2024-03-23T09:36:54;34.63;;;14.35;;
54307;SDS011;40208;39.778;2.710;2024-03-23T09:39:39;28.27;;;13.43;;
54307;SDS011;40208;39.778;2.710;2024-03-23T09:42:26;34.05;;;14.27;;
54307;SDS011;40208;39.778;2.710;2024-03-23T09:45:11;29.92;;;12.43;;
54307;SDS011;40208;39.778;2.710;2024-03-23T09:48:04;25.80;;;12.15;;
54307;SDS011;40208;39.778;2.710;2024-03-23T09:50:51;28.80;;;9.95;;
54307;SDS011;40208;39.778;2.710;2024-03-23T09:53:36;23.08;;;9.65;;
54307;SDS011;40208;39.778;2.710;2024-03-23T09:56:21;33.67;;;13.57;;
54307;SDS011;40208;39.778;2.710;2024-03-23T09:59:07;29.45;;;11.38;;
54307;SDS011;40208;39.778;2.710;2024-03-23T10:01:53;41.63;;;19.65;;
54307;SDS011;40208;39.778;2.710;2024-03-23T10:04:41;26.55;;;13.18;;
54307;SDS011;40208;39.778;2.710;2024-03-23T10:07:26;39.65;;;17.67;;
54307;SDS011;40208;39.778;2.710;2024-03-23T10:10:13;34.08;;;14.48;;
54307;SDS011;40208;39.778;2.710;2024-03-23T10:13:00;39.17;;;15.98;;
54307;SDS011;40208;39.778;2.710;2024-03-23T10:15:45;24.60;;;10.32;;
54307;SDS011;40208;39.778;2.710;2024-03-23T10:18:30;26.83;;;10.75;;
54307;SDS011;40208;39.778;2.710;2024-03-23T10:21:16;25.05;;;11.52;;
54307;SDS011;40208;39.778;2.710;2024-03-23T10:24:07;22.48;;;10.02;;
54307;SDS011;40208;39.778;2.710;2024-03-23T10:26:56;24.90;;;9.48;;
54307;SDS011;40208;39.778;2.710;2024-03-23T10:29:41;25.05;;;10.38;;
54307;SDS011;40208;39.778;2.710;2024-03-23T10:32:25;24.98;;;10.93;;
54307;SDS011;40208;39.778;2.710;2024-03-23T10:35:18;21.70;;;9.10;;
54307;SDS011;40208;39.778;2.710;2024-03-23T10:38:06;26.75;;;11.15;;
54307;SDS011;40208;39.778;2.710;2024-03-23T10:40:52;44.92;;;14.50;;
54307;SDS011;40208;39.778;2.710;2024-03-23T10:43:38;57.30;;;15.40;;
54307;SDS011;40208;39.778;2.710;2024-03-23T10:46:23;38.88;;;14.07;;
54307;SDS011;40208;39.778;2.710;2024-03-23T10:49:08;33.22;;;11.68;;
54307;SDS011;40208;39.778;2.710;2024-03-23T10:51:53;24.98;;;9.45;;
54307;SDS011;40208;39.778;2.710;2024-03-23T10:54:38;24.50;;;10.68;;
54307;SDS011;40208;39.778;2.710;2024-03-23T10:57:30;32.75;;;10.77;;
54307;SDS011;40208;39.778;2.710;2024-03-23T11:00:23;20.30;;;8.13;;
54307;SDS011;40208;39.778;2.710;2024-03-23T11:03:29;22.63;;;8.07;;
54307;SDS011;40208;39.778;2.710;2024-03-23T11:09:42;15.60;;;7.10;;
54307;SDS011;40208;39.778;2.710;2024-03-23T11:12:30;29.80;;;8.63;;
54307;SDS011;40208;39.778;2.710;2024-03-23T11:15:17;21.35;;;7.72;;
54307;SDS011;40208;39.778;2.710;2024-03-23T11:18:03;22.33;;;6.95;;
54307;SDS011;40208;39.778;2.710;2024-03-23T11:20:49;25.15;;;8.07;;
54307;SDS011;40208;39.778;2.710;2024-03-23T11:23:34;17.08;;;6.05;;
54307;SDS011;40208;39.778;2.710;2024-03-23T11:26:18;17.77;;;6.25;;
54307;SDS011;40208;39.778;2.710;2024-03-23T11:29:09;15.02;;;6.28;;
54307;SDS011;40208;39.778;2.710;2024-03-23T11:31:55;15.15;;;5.10;;
54307;SDS011;40208;39.778;2.710;2024-03-23T11:34:40;13.15;;;5.65;;
54307;SDS011;40208;39.778;2.710;2024-03-23T11:37:25;27.92;;;9.13;;
54307;SDS011;40208;39.778;2.710;2024-03-23T11:40:20;17.40;;;8.02;;
54307;SDS011;40208;39.778;2.710;2024-03-23T11:43:05;29.15;;;8.77;;
54307;SDS011;40208;39.778;2.710;2024-03-23T11:45:52;23.33;;;7.15;;
54307;SDS011;40208;39.778;2.710;2024-03-23T11:48:37;15.90;;;6.90;;
54307;SDS011;40208;39.778;2.710;2024-03-23T11:51:22;19.98;;;6.93;;
54307;SDS011;40208;39.778;2.710;2024-03-23T11:54:08;23.38;;;7.10;;
54307;SDS011;40208;39.778;2.710;2024-03-23T11:59:52;21.88;;;8.07;;
54307;SDS011;40208;39.778;2.710;2024-03-23T12:02:37;19.40;;;8.68;;
54307;SDS011;40208;39.778;2.710;2024-03-23T12:05:22;18.92;;;9.18;;
54307;SDS011;40208;39.778;2.710;2024-03-23T12:08:18;19.35;;;7.35;;
54307;SDS011;40208;39.778;2.710;2024-03-23T12:13:50;14.50;;;5.28;;
54307;SDS011;40208;39.778;2.710;2024-03-23T12:16:36;12.60;;;4.13;;
54307;SDS011;40208;39.778;2.710;2024-03-23T12:19:21;16.23;;;5.15;;
54307;SDS011;40208;39.778;2.710;2024-03-23T12:22:06;12.27;;;4.63;;
54307;SDS011;40208;39.778;2.710;2024-03-23T12:24:52;11.50;;;5.15;;
54307;SDS011;40208;39.778;2.710;2024-03-23T12:27:37;13.88;;;5.05;;
54307;SDS011;40208;39.778;2.710;2024-03-23T12:30:22;21.92;;;5.70;;
54307;SDS011;40208;39.778;2.710;2024-03-23T12:33:07;19.92;;;5.47;;
54307;SDS011;40208;39.778;2.710;2024-03-23T12:35:52;16.83;;;5.85;;
54307;SDS011;40208;39.778;2.710;2024-03-23T12:38:38;23.25;;;7.70;;
54307;SDS011;40208;39.778;2.710;2024-03-23T12:41:23;20.27;;;5.95;;
54307;SDS011;40208;39.778;2.710;2024-03-23T12:44:08;14.18;;;6.40;;
54307;SDS011;40208;39.778;2.710;2024-03-23T12:46:55;21.65;;;6.50;;
54307;SDS011;40208;39.778;2.710;2024-03-23T12:49:40;14.82;;;5.93;;
54307;SDS011;40208;39.778;2.710;2024-03-23T12:52:25;14.25;;;5.97;;
54307;SDS011;40208;39.778;2.710;2024-03-23T12:55:13;22.35;;;6.20;;
54307;SDS011;40208;39.778;2.710;2024-03-23T12:57:58;19.38;;;6.63;;
54307;SDS011;40208;39.778;2.710;2024-03-23T13:00:43;20.45;;;7.05;;
54307;SDS011;40208;39.778;2.710;2024-03-23T13:03:28;21.63;;;6.65;;
54307;SDS011;40208;39.778;2.710;2024-03-23T13:06:13;15.25;;;5.45;;
54307;SDS011;40208;39.778;2.710;2024-03-23T13:08:58;13.40;;;4.75;;
54307;SDS011;40208;39.778;2.710;2024-03-23T13:11:43;15.30;;;4.22;;
54307;SDS011;40208;39.778;2.710;2024-03-23T13:14:27;22.25;;;5.05;;
54307;SDS011;40208;39.778;2.710;2024-03-23T13:17:12;15.52;;;3.95;;
54307;SDS011;40208;39.778;2.710;2024-03-23T13:19:57;20.98;;;5.63;;
54307;SDS011;40208;39.778;2.710;2024-03-23T13:22:42;17.80;;;4.15;;
54307;SDS011;40208;39.778;2.710;2024-03-23T13:25:27;15.60;;;3.83;;
54307;SDS011;40208;39.778;2.710;2024-03-23T13:28:12;23.83;;;4.35;;
54307;SDS011;40208;39.778;2.710;2024-03-23T13:30:57;17.13;;;5.38;;
54307;SDS011;40208;39.778;2.710;2024-03-23T13:33:50;21.65;;;5.15;;
54307;SDS011;40208;39.778;2.710;2024-03-23T13:36:34;22.48;;;5.30;;
54307;SDS011;40208;39.778;2.710;2024-03-23T13:39:20;11.75;;;4.38;;
54307;SDS011;40208;39.778;2.710;2024-03-23T13:42:05;19.80;;;5.40;;
54307;SDS011;40208;39.778;2.710;2024-03-23T13:44:50;13.23;;;4.32;;
54307;SDS011;40208;39.778;2.710;2024-03-23T13:47:34;18.30;;;5.30;;
54307;SDS011;40208;39.778;2.710;2024-03-23T13:50:19;15.38;;;4.65;;
54307;SDS011;40208;39.778;2.710;2024-03-23T13:53:04;17.55;;;4.57;;
54307;SDS011;40208;39.778;2.710;2024-03-23T13:55:50;13.50;;;3.70;;
54307;SDS011;40208;39.778;2.710;2024-03-23T13:58:34;22.55;;;4.05;;
54307;SDS011;40208;39.778;2.710;2024-03-23T14:01:19;18.35;;;3.95;;
54307;SDS011;40208;39.778;2.710;2024-03-23T14:04:04;22.70;;;4.60;;
54307;SDS011;40208;39.778;2.710;2024-03-23T14:06:49;19.23;;;4.13;;
54307;SDS011;40208;39.778;2.710;2024-03-23T14:09:34;11.07;;;3.55;;
54307;SDS011;40208;39.778;2.710;2024-03-23T14:12:19;13.93;;;4.35;;
54307;SDS011;40208;39.778;2.710;2024-03-23T14:15:07;10.35;;;3.53;;
54307;SDS011;40208;39.778;2.710;2024-03-23T14:17:52;12.68;;;3.08;;
54307;SDS011;40208;39.778;2.710;2024-03-23T14:20:38;14.43;;;3.90;;
54307;SDS011;40208;39.778;2.710;2024-03-23T14:23:27;16.63;;;4.32;;
54307;SDS011;40208;39.778;2.710;2024-03-23T14:28:58;17.35;;;4.30;;
54307;SDS011;40208;39.778;2.710;2024-03-23T14:31:43;13.70;;;3.72;;
54307;SDS011;40208;39.778;2.710;2024-03-23T14:34:27;15.00;;;4.07;;
54307;SDS011;40208;39.778;2.710;2024-03-23T14:37:15;13.27;;;3.30;;
54307;SDS011;40208;39.778;2.710;2024-03-23T14:39:59;18.20;;;3.50;;
54307;SDS011;40208;39.778;2.710;2024-03-23T14:42:44;11.65;;;3.33;;
54307;SDS011;40208;39.778;2.710;2024-03-23T14:45:29;12.57;;;3.97;;
54307;SDS011;40208;39.778;2.710;2024-03-23T14:48:14;15.75;;;4.15;;
54307;SDS011;40208;39.778;2.710;2024-03-23T14:50:59;12.50;;;4.28;;
54307;SDS011;40208;39.778;2.710;2024-03-23T14:53:45;12.07;;;3.47;;
54307;SDS011;40208;39.778;2.710;2024-03-23T14:56:30;8.90;;;3.30;;
54307;SDS011;40208;39.778;2.710;2024-03-23T14:59:15;17.52;;;4.10;;
54307;SDS011;40208;39.778;2.710;2024-03-23T15:02:00;10.45;;;3.25;;
54307;SDS011;40208;39.778;2.710;2024-03-23T15:04:45;12.82;;;4.30;;
54307;SDS011;40208;39.778;2.710;2024-03-23T15:07:32;10.80;;;3.95;;
54307;SDS011;40208;39.778;2.710;2024-03-23T15:10:18;11.65;;;3.60;;
54307;SDS011;40208;39.778;2.710;2024-03-23T15:13:02;10.32;;;3.67;;
54307;SDS011;40208;39.778;2.710;2024-03-23T15:15:47;13.60;;;5.88;;
54307;SDS011;40208;39.778;2.710;2024-03-23T15:18:33;17.77;;;6.40;;
54307;SDS011;40208;39.778;2.710;2024-03-23T15:21:20;17.88;;;7.85;;
54307;SDS011;40208;39.778;2.710;2024-03-23T15:24:05;32.22;;;10.98;;
54307;SDS011;40208;39.778;2.710;2024-03-23T15:26:50;17.73;;;9.80;;
54307;SDS011;40208;39.778;2.710;2024-03-23T15:29:36;19.27;;;8.07;;
54307;SDS011;40208;39.778;2.710;2024-03-23T15:32:21;20.13;;;7.45;;
54307;SDS011;40208;39.778;2.710;2024-03-23T15:35:06;14.88;;;6.63;;
54307;SDS011;40208;39.778;2.710;2024-03-23T15:37:51;20.55;;;6.43;;
54307;SDS011;40208;39.778;2.710;2024-03-23T15:40:36;14.10;;;5.72;;
54307;SDS011;40208;39.778;2.710;2024-03-23T15:43:21;13.15;;;5.35;;
54307;SDS011;40208;39.778;2.710;2024-03-23T15:46:06;10.32;;;5.18;;
54307;SDS011;40208;39.778;2.710;2024-03-23T15:48:52;11.85;;;4.57;;
54307;SDS011;40208;39.778;2.710;2024-03-23T15:51:38;15.02;;;6.53;;
54307;SDS011;40208;39.778;2.710;2024-03-23T15:54:25;16.33;;;5.35;;
54307;SDS011;40208;39.778;2.710;2024-03-23T15:57:11;13.73;;;5.35;;
54307;SDS011;40208;39.778;2.710;2024-03-23T15:59:55;25.83;;;6.38;;
54307;SDS011;40208;39.778;2.710;2024-03-23T16:02:40;13.40;;;5.15;;
54307;SDS011;40208;39.778;2.710;2024-03-23T16:05:26;14.63;;;5.53;;
54307;SDS011;40208;39.778;2.710;2024-03-23T16:08:12;12.68;;;5.03;;
54307;SDS011;40208;39.778;2.710;2024-03-23T16:11:02;17.58;;;5.22;;
54307;SDS011;40208;39.778;2.710;2024-03-23T16:13:48;16.65;;;5.55;;
54307;SDS011;40208;39.778;2.710;2024-03-23T16:16:32;12.85;;;5.43;;
54307;SDS011;40208;39.778;2.710;2024-03-23T16:19:17;17.67;;;6.05;;
54307;SDS011;40208;39.778;2.710;2024-03-23T16:22:02;14.07;;;5.85;;
54307;SDS011;40208;39.778;2.710;2024-03-23T16:24:47;13.15;;;5.78;;
54307;SDS011;40208;39.778;2.710;2024-03-23T16:27:32;17.48;;;5.13;;
54307;SDS011;40208;39.778;2.710;2024-03-23T16:30:17;15.45;;;5.50;;
54307;SDS011;40208;39.778;2.710;2024-03-23T16:33:02;11.38;;;5.65;;
54307;SDS011;40208;39.778;2.710;2024-03-23T16:35:57;16.50;;;5.25;;
54307;SDS011;40208;39.778;2.710;2024-03-23T16:38:43;15.23;;;5.40;;
54307;SDS011;40208;39.778;2.710;2024-03-23T16:41:27;10.68;;;5.30;;
54307;SDS011;40208;39.778;2.710;2024-03-23T16:44:12;12.10;;;5.25;;
54307;SDS011;40208;39.778;2.710;2024-03-23T16:46:57;10.57;;;5.18;;
54307;SDS011;40208;39.778;2.710;2024-03-23T16:49:42;16.00;;;5.95;;
54307;SDS011;40208;39.778;2.710;2024-03-23T16:52:27;12.43;;;5.32;;
54307;SDS011;40208;39.778;2.710;2024-03-23T16:55:12;12.10;;;5.43;;
54307;SDS011;40208;39.778;2.710;2024-03-23T16:57:56;13.90;;;5.88;;
54307;SDS011;40208;39.778;2.710;2024-03-23T17:00:41;16.13;;;5.18;;
54307;SDS011;40208;39.778;2.710;2024-03-23T17:03:26;11.23;;;5.18;;
54307;SDS011;40208;39.778;2.710;2024-03-23T17:06:11;9.90;;;5.25;;
54307;SDS011;40208;39.778;2.710;2024-03-23T17:08:59;17.92;;;6.22;;
54307;SDS011;40208;39.778;2.710;2024-03-23T17:11:44;11.20;;;5.65;;
54307;SDS011;40208;39.778;2.710;2024-03-23T17:14:30;15.98;;;5.07;;
54307;SDS011;40208;39.778;2.710;2024-03-23T17:17:15;16.88;;;4.88;;
54307;SDS011;40208;39.778;2.710;2024-03-23T17:20:03;11.00;;;4.57;;